Time;durP1;ratioP1;P1;durP2;ratioP2;P2;SDS_P1;SDS_P2;PMS_P1;PMS_P2;Temp;Humidity;BMP_temperature;BMP_pressure;BME280_temperature;BME280_humidity;BME280_pressure;Samples;Min_cycle;Max_cycle;Signal;HPM_P1;HPM_P2
2022/03/15 00:00:44;;;;;;;15.80;6.20;;;6.40;99.90;;;;;;5017854;28;20045;-84
2022/03/15 00:03:09;;;;;;;17.38;6.85;;;6.40;99.90;;;;;;5019263;28;20037;-85
2022/03/15 00:05:35;;;;;;;13.93;5.65;;;6.50;99.90;;;;;;5050388;28;22171;-85
2022/03/15 00:08:01;;;;;;;16.45;6.82;;;6.50;99.90;;;;;;5016113;28;20040;-85
2022/03/15 00:10:28;;;;;;;16.55;6.78;;;6.50;99.90;;;;;;5033104;28;20037;-85
2022/03/15 00:12:57;;;;;;;16.60;6.97;;;6.50;99.90;;;;;;5036835;28;20029;-85
2022/03/15 00:15:24;;;;;;;15.55;6.30;;;6.50;99.90;;;;;;5035769;28;20052;-85
2022/03/15 00:17:50;;;;;;;16.20;6.70;;;6.50;99.90;;;;;;5036390;28;20040;-86
2022/03/15 00:20:19;;;;;;;9.65;5.20;;;6.50;99.90;;;;;;5014091;28;20421;-86
2022/03/15 00:22:47;;;;;;;12.65;5.68;;;6.50;99.90;;;;;;5034793;28;20421;-86
2022/03/15 00:25:16;;;;;;;14.57;6.68;;;6.50;99.90;;;;;;5049275;28;20425;-85
2022/03/15 00:27:41;;;;;;;21.70;7.93;;;6.50;99.90;;;;;;5029647;28;20045;-85
2022/03/15 00:30:07;;;;;;;15.57;7.53;;;6.60;99.90;;;;;;5032515;28;20040;-85
2022/03/15 00:32:34;;;;;;;18.65;6.78;;;6.60;99.90;;;;;;5018569;28;20045;-85
2022/03/15 00:34:59;;;;;;;23.10;7.60;;;6.70;99.90;;;;;;5034738;28;20132;-86
2022/03/15 00:37:26;;;;;;;16.30;6.78;;;6.70;99.90;;;;;;5048533;28;20548;-85
2022/03/15 00:39:52;;;;;;;16.60;6.90;;;6.80;99.90;;;;;;5048096;28;20458;-85
2022/03/15 00:42:18;;;;;;;13.63;5.78;;;6.80;99.90;;;;;;5021375;28;20033;-85
2022/03/15 00:44:43;;;;;;;19.90;7.28;;;6.90;99.90;;;;;;5031402;28;20132;-86
2022/03/15 00:47:10;;;;;;;20.02;8.32;;;6.90;99.90;;;;;;5031240;28;20492;-85
2022/03/15 00:49:36;;;;;;;21.92;8.73;;;7.00;99.90;;;;;;5038335;28;20037;-85
2022/03/15 00:52:02;;;;;;;15.55;7.55;;;7.00;99.90;;;;;;5046489;28;20465;-85
2022/03/15 00:54:28;;;;;;;16.10;6.32;;;7.00;99.90;;;;;;5050504;28;20034;-85
2022/03/15 00:56:54;;;;;;;18.45;8.95;;;7.00;99.90;;;;;;5019981;28;20064;-85
2022/03/15 00:59:20;;;;;;;13.65;7.20;;;7.10;99.90;;;;;;5013852;28;20073;-85
2022/03/15 01:01:46;;;;;;;23.70;8.98;;;7.10;99.90;;;;;;5049366;28;20043;-85
2022/03/15 01:04:12;;;;;;;16.75;8.75;;;7.10;99.90;;;;;;5015153;28;20140;-85
2022/03/15 01:06:39;;;;;;;24.98;9.68;;;7.20;99.90;;;;;;5044678;28;20080;-86
2022/03/15 01:09:05;;;;;;;17.10;7.88;;;7.20;99.90;;;;;;5029288;28;20042;-85
2022/03/15 01:11:31;;;;;;;20.25;8.27;;;7.20;99.90;;;;;;5033443;28;20068;-85
2022/03/15 01:13:56;;;;;;;17.30;7.85;;;7.20;99.90;;;;;;5050995;28;20036;-85
2022/03/15 01:16:22;;;;;;;18.33;8.43;;;7.20;99.90;;;;;;5015072;28;20393;-85
2022/03/15 01:18:48;;;;;;;15.20;8.00;;;7.20;99.90;;;;;;5036648;28;20056;-85
2022/03/15 01:21:14;;;;;;;20.17;9.20;;;7.20;99.90;;;;;;5055050;28;20471;-86
2022/03/15 01:23:40;;;;;;;18.98;8.70;;;7.20;99.90;;;;;;5048461;28;20088;-86
2022/03/15 01:26:06;;;;;;;22.95;10.32;;;7.20;99.90;;;;;;5026661;28;20041;-85
2022/03/15 01:28:32;;;;;;;22.55;10.18;;;7.20;99.90;;;;;;5049567;28;20071;-85
2022/03/15 01:30:58;;;;;;;23.42;10.25;;;7.20;99.90;;;;;;5048192;28;20045;-85
2022/03/15 01:33:24;;;;;;;18.90;8.98;;;7.20;99.90;;;;;;5039774;28;20028;-85
2022/03/15 01:35:49;;;;;;;18.17;9.73;;;7.10;99.90;;;;;;5016347;28;20082;-86
2022/03/15 01:38:15;;;;;;;20.02;10.15;;;7.10;99.90;;;;;;5041040;28;20478;-85
2022/03/15 01:40:41;;;;;;;22.95;11.07;;;7.20;99.90;;;;;;5032620;28;20040;-85
2022/03/15 01:43:07;;;;;;;20.05;8.48;;;7.10;99.90;;;;;;5033906;28;20064;-85
2022/03/15 01:45:34;;;;;;;18.33;8.95;;;7.10;99.90;;;;;;5037625;28;20059;-85
2022/03/15 01:48:01;;;;;;;24.23;10.27;;;7.10;99.90;;;;;;5049297;28;20040;-84
2022/03/15 01:50:27;;;;;;;18.08;9.25;;;7.10;99.90;;;;;;5017077;28;20052;-85
2022/03/15 01:52:53;;;;;;;20.23;9.43;;;7.10;99.90;;;;;;5032648;28;20048;-85
2022/03/15 01:55:19;;;;;;;23.27;11.88;;;7.00;99.90;;;;;;5052708;28;20037;-85
2022/03/15 01:57:45;;;;;;;14.45;7.53;;;7.00;99.90;;;;;;5049471;28;20065;-86
2022/03/15 02:00:11;;;;;;;23.67;10.60;;;7.00;99.90;;;;;;5026630;28;20033;-85
2022/03/15 02:02:38;;;;;;;22.48;10.18;;;6.90;99.90;;;;;;5048112;28;20033;-84
2022/03/15 02:05:05;;;;;;;25.00;10.45;;;6.80;99.90;;;;;;5037782;28;20526;-83
2022/03/15 02:07:30;;;;;;;20.77;11.13;;;6.80;99.90;;;;;;5010348;28;20052;-83
2022/03/15 02:09:56;;;;;;;19.33;10.20;;;6.70;99.90;;;;;;5029298;28;20105;-83
2022/03/15 02:12:22;;;;;;;19.48;10.23;;;6.70;99.90;;;;;;5043794;28;20087;-83
2022/03/15 02:14:48;;;;;;;24.35;11.60;;;6.60;99.90;;;;;;5011087;28;20048;-84
2022/03/15 02:17:14;;;;;;;17.85;9.50;;;6.50;99.90;;;;;;5031239;28;20043;-84
2022/03/15 02:19:41;;;;;;;22.73;11.95;;;6.50;99.90;;;;;;5012974;28;20034;-83
2022/03/15 02:22:07;;;;;;;26.90;11.50;;;6.50;99.90;;;;;;5049108;28;20490;-83
2022/03/15 02:24:34;;;;;;;19.70;10.35;;;6.40;99.90;;;;;;5029118;28;20037;-83
2022/03/15 02:27:01;;;;;;;20.63;11.82;;;6.40;99.90;;;;;;5010400;28;20131;-83
2022/03/15 02:29:27;;;;;;;21.73;10.75;;;6.40;99.90;;;;;;5043730;28;20672;-83
2022/03/15 02:31:52;;;;;;;23.73;9.93;;;6.30;99.90;;;;;;5030708;28;20124;-83
2022/03/15 02:34:18;;;;;;;25.20;12.68;;;6.30;99.90;;;;;;5033986;28;20047;-83
2022/03/15 02:36:44;;;;;;;21.02;9.70;;;6.30;99.90;;;;;;5035391;28;20135;-83
2022/03/15 02:39:10;;;;;;;18.35;8.65;;;6.30;99.90;;;;;;5045893;28;20112;-83
2022/03/15 02:41:36;;;;;;;19.67;9.68;;;6.20;99.90;;;;;;5049507;28;20508;-83
2022/03/15 02:44:02;;;;;;;18.52;9.80;;;6.20;99.90;;;;;;5032430;28;20174;-83
2022/03/15 02:46:29;;;;;;;17.65;9.35;;;6.20;99.90;;;;;;5030751;28;20386;-83
2022/03/15 02:48:55;;;;;;;21.85;10.23;;;6.10;99.90;;;;;;5032191;28;20111;-83
2022/03/15 02:51:21;;;;;;;19.08;9.93;;;6.10;99.90;;;;;;5032242;28;20043;-84
2022/03/15 02:53:47;;;;;;;22.00;10.68;;;6.10;99.90;;;;;;5032711;28;20681;-83
2022/03/15 02:56:13;;;;;;;21.58;9.75;;;6.10;99.90;;;;;;5045273;28;20033;-83
2022/03/15 02:58:40;;;;;;;15.75;8.70;;;6.00;99.90;;;;;;5029791;28;20041;-84
2022/03/15 03:01:06;;;;;;;14.82;7.13;;;6.00;99.90;;;;;;5028052;28;20386;-84
2022/03/15 03:03:32;;;;;;;14.80;8.30;;;5.90;99.90;;;;;;5032527;28;20069;-83
2022/03/15 03:05:58;;;;;;;19.80;9.98;;;5.90;99.90;;;;;;5042437;28;20095;-83
2022/03/15 03:08:26;;;;;;;17.60;8.60;;;5.90;99.90;;;;;;5012782;28;20520;-83
2022/03/15 03:10:55;;;;;;;17.88;8.35;;;5.90;99.90;;;;;;5019625;28;20102;-83
2022/03/15 03:13:25;;;;;;;20.85;9.05;;;5.90;99.90;;;;;;5036468;28;20068;-83
2022/03/15 03:15:55;;;;;;;18.50;9.07;;;5.90;99.90;;;;;;5035492;28;20076;-83
2022/03/15 03:18:21;;;;;;;18.15;8.98;;;5.90;99.90;;;;;;5036866;28;20091;-84
2022/03/15 03:20:47;;;;;;;19.02;10.57;;;5.80;99.90;;;;;;5036960;28;20091;-83
2022/03/15 03:23:14;;;;;;;16.85;8.90;;;5.80;99.90;;;;;;5036899;28;20122;-83
2022/03/15 03:25:42;;;;;;;20.55;10.25;;;5.80;99.90;;;;;;5034530;28;20071;-83
2022/03/15 03:28:08;;;;;;;16.48;9.48;;;5.80;99.90;;;;;;5022237;28;20138;-83
2022/03/15 03:30:37;;;;;;;23.08;9.15;;;5.80;99.90;;;;;;5035281;28;20131;-84
2022/03/15 03:33:03;;;;;;;15.60;8.23;;;5.70;99.90;;;;;;5012823;28;20090;-83
2022/03/15 03:35:30;;;;;;;17.75;8.40;;;5.70;99.90;;;;;;5029519;28;20085;-83
2022/03/15 03:37:56;;;;;;;21.58;9.68;;;5.70;99.90;;;;;;5040036;28;20351;-83
2022/03/15 03:40:21;;;;;;;18.95;8.50;;;5.70;99.90;;;;;;5025654;28;20052;-83
2022/03/15 03:42:47;;;;;;;21.70;8.93;;;5.70;99.90;;;;;;5020092;28;20460;-83
2022/03/15 03:45:13;;;;;;;17.90;8.20;;;5.70;99.90;;;;;;5035968;28;20064;-83
2022/03/15 03:47:38;;;;;;;13.80;6.82;;;5.70;99.90;;;;;;5032287;28;20419;-83
2022/03/15 03:50:06;;;;;;;16.50;8.35;;;5.70;99.90;;;;;;5029973;28;20513;-84
2022/03/15 03:52:32;;;;;;;19.58;9.10;;;5.70;99.90;;;;;;5031861;28;20124;-83
2022/03/15 03:54:57;;;;;;;18.17;8.90;;;5.70;99.90;;;;;;5035851;28;20105;-84
2022/03/15 03:57:23;;;;;;;16.10;9.98;;;5.70;99.90;;;;;;5036602;28;20120;-83
2022/03/15 03:59:48;;;;;;;16.52;8.43;;;5.70;99.90;;;;;;5048617;28;20171;-83
2022/03/15 04:02:14;;;;;;;19.75;9.68;;;5.70;99.90;;;;;;5032740;28;20083;-83
2022/03/15 04:04:40;;;;;;;19.60;9.05;;;5.70;99.90;;;;;;5016938;28;20060;-83
2022/03/15 04:07:07;;;;;;;20.73;10.63;;;5.70;99.90;;;;;;5015568;28;20041;-84
2022/03/15 04:09:33;;;;;;;21.60;8.73;;;5.70;99.90;;;;;;5051313;28;20197;-84
2022/03/15 04:11:59;;;;;;;17.63;8.38;;;5.70;99.90;;;;;;5021235;28;20079;-83
2022/03/15 04:14:25;;;;;;;13.45;7.20;;;5.70;99.90;;;;;;5012764;28;20453;-83
2022/03/15 04:16:51;;;;;;;16.85;9.18;;;5.70;99.90;;;;;;5033127;28;20108;-83
2022/03/15 04:19:16;;;;;;;17.50;8.23;;;5.70;99.90;;;;;;5030851;28;20069;-83
2022/03/15 04:21:42;;;;;;;14.07;8.10;;;5.70;99.90;;;;;;5043908;28;20051;-83
2022/03/15 04:24:08;;;;;;;17.30;9.38;;;5.70;99.90;;;;;;5027809;28;20037;-83
2022/03/15 04:26:33;;;;;;;14.60;8.23;;;5.70;99.90;;;;;;5044549;28;20045;-83
2022/03/15 04:28:59;;;;;;;22.20;10.65;;;5.70;99.90;;;;;;5026222;28;20454;-83
2022/03/15 04:31:24;;;;;;;17.50;8.05;;;5.70;99.90;;;;;;5045087;28;20066;-83
2022/03/15 04:33:50;;;;;;;16.88;9.68;;;5.70;99.90;;;;;;5050502;28;20033;-83
2022/03/15 04:36:16;;;;;;;16.60;8.68;;;5.80;99.90;;;;;;5020249;28;20041;-83
2022/03/15 04:38:42;;;;;;;17.50;9.02;;;5.80;99.90;;;;;;5024495;28;20033;-83
2022/03/15 04:41:08;;;;;;;20.13;10.57;;;5.80;99.90;;;;;;5035033;28;20041;-83
2022/03/15 04:43:34;;;;;;;21.52;10.73;;;5.80;99.90;;;;;;5033495;28;20032;-84
2022/03/15 04:46:00;;;;;;;17.25;9.90;;;5.90;99.90;;;;;;5017617;28;20064;-82
2022/03/15 04:48:26;;;;;;;19.90;10.27;;;5.90;99.90;;;;;;5018976;28;20699;-83
2022/03/15 04:50:52;;;;;;;20.58;11.10;;;5.90;99.90;;;;;;5034495;28;20136;-84
2022/03/15 04:53:18;;;;;;;21.33;10.98;;;5.90;99.90;;;;;;5034064;28;20051;-83
2022/03/15 04:55:45;;;;;;;20.23;11.05;;;5.90;99.90;;;;;;5029113;28;20037;-83
2022/03/15 04:58:11;;;;;;;19.02;9.43;;;5.90;99.90;;;;;;5035654;28;20068;-84
2022/03/15 05:00:37;;;;;;;16.98;9.48;;;5.90;99.90;;;;;;5018881;28;20080;-83
2022/03/15 05:03:03;;;;;;;19.73;9.68;;;5.90;99.90;;;;;;4994528;28;1092309;-83
2022/03/15 05:05:28;;;;;;;20.27;10.30;;;5.90;99.90;;;;;;5033982;28;20090;-83
2022/03/15 05:07:54;;;;;;;24.60;11.50;;;5.90;99.90;;;;;;5032568;28;20071;-83
2022/03/15 05:13:04;;;;;;;18.15;9.85;;;5.90;99.90;;;;;;5057310;28;20037;-83
2022/03/15 05:15:30;;;;;;;18.15;10.23;;;5.90;99.90;;;;;;5048610;28;20033;-83
2022/03/15 05:17:56;;;;;;;24.52;11.48;;;5.90;99.90;;;;;;5020169;28;20033;-84
2022/03/15 05:20:21;;;;;;;25.17;11.75;;;5.90;99.90;;;;;;5015891;28;20132;-83
2022/03/15 05:22:47;;;;;;;20.90;11.45;;;5.90;99.90;;;;;;5049576;28;20033;-83
2022/03/15 05:25:13;;;;;;;21.60;12.32;;;5.90;99.90;;;;;;5017697;28;20037;-84
2022/03/15 05:27:40;;;;;;;25.27;14.10;;;5.90;99.90;;;;;;5032279;28;20095;-83
2022/03/15 05:30:07;;;;;;;23.05;12.95;;;5.90;99.90;;;;;;5042416;28;20119;-83
2022/03/15 05:32:32;;;;;;;24.50;13.48;;;5.90;99.90;;;;;;5037206;28;20150;-83
2022/03/15 05:34:58;;;;;;;25.00;13.57;;;5.90;99.90;;;;;;5054619;28;20127;-83
2022/03/15 05:37:24;;;;;;;22.40;11.98;;;5.90;99.90;;;;;;5019719;28;20128;-84
2022/03/15 05:39:50;;;;;;;21.95;13.10;;;5.90;99.90;;;;;;5027686;28;20124;-83
2022/03/15 05:42:17;;;;;;;24.60;13.45;;;5.90;99.90;;;;;;5034964;28;20059;-83
2022/03/15 05:44:42;;;;;;;29.17;14.65;;;5.90;99.90;;;;;;5032664;28;20040;-83
2022/03/15 05:47:08;;;;;;;27.83;13.88;;;5.90;99.90;;;;;;5015743;28;20109;-83
2022/03/15 05:49:34;;;;;;;29.38;14.95;;;5.90;99.90;;;;;;5045368;28;20056;-83
2022/03/15 05:52:00;;;;;;;27.58;14.77;;;6.00;99.90;;;;;;5051195;28;20141;-83
2022/03/15 05:54:25;;;;;;;23.48;13.18;;;5.90;99.90;;;;;;5033928;28;20462;-83
2022/03/15 05:56:51;;;;;;;29.17;15.15;;;5.90;99.90;;;;;;5049384;28;20041;-84
2022/03/15 05:59:17;;;;;;;30.20;16.08;;;6.00;99.90;;;;;;5029550;28;20044;-84
2022/03/15 06:01:42;;;;;;;25.55;13.35;;;6.00;99.90;;;;;;5015114;28;20106;-83
2022/03/15 06:04:10;;;;;;;24.20;13.57;;;6.00;99.90;;;;;;5030391;28;20060;-83
2022/03/15 06:06:36;;;;;;;30.27;15.10;;;6.00;99.90;;;;;;5028605;28;20106;-83
2022/03/15 06:09:02;;;;;;;28.45;14.48;;;6.00;99.90;;;;;;5031479;28;20045;-83
2022/03/15 06:11:28;;;;;;;29.38;16.05;;;6.00;99.90;;;;;;5043853;28;20434;-83
2022/03/15 06:13:54;;;;;;;28.75;14.73;;;6.00;99.90;;;;;;5029843;28;20123;-83
2022/03/15 06:16:20;;;;;;;29.40;15.15;;;6.00;99.90;;;;;;5047406;28;20048;-83
2022/03/15 06:18:45;;;;;;;23.73;13.38;;;6.10;99.90;;;;;;5049462;28;20117;-84
2022/03/15 06:21:11;;;;;;;27.77;14.18;;;6.10;99.90;;;;;;5007266;28;20045;-83
2022/03/15 06:23:37;;;;;;;28.05;15.25;;;6.10;99.90;;;;;;5012603;28;20421;-82
2022/03/15 06:26:03;;;;;;;27.35;15.02;;;6.10;99.90;;;;;;5032631;28;20425;-84
2022/03/15 06:28:29;;;;;;;29.05;15.43;;;6.10;99.90;;;;;;5026938;28;20041;-84
2022/03/15 06:30:57;;;;;;;24.70;13.15;;;6.20;99.90;;;;;;5046594;28;20060;-84
2022/03/15 06:33:23;;;;;;;26.90;14.85;;;6.20;99.90;;;;;;5045012;28;20545;-83
2022/03/15 06:35:49;;;;;;;29.48;16.60;;;6.20;99.90;;;;;;5063679;28;20037;-83
2022/03/15 06:38:15;;;;;;;26.73;13.82;;;6.20;99.90;;;;;;5046484;28;20041;-84
2022/03/15 06:40:42;;;;;;;28.55;15.52;;;6.30;99.90;;;;;;5006781;28;20025;-83
2022/03/15 06:43:09;;;;;;;31.90;16.13;;;6.30;99.90;;;;;;5032698;28;20119;-83
2022/03/15 06:45:35;;;;;;;29.90;16.23;;;6.30;99.90;;;;;;5035749;28;20516;-83
2022/03/15 06:48:01;;;;;;;27.25;14.77;;;6.40;99.90;;;;;;5031154;28;20045;-83
2022/03/15 06:50:26;;;;;;;25.02;13.77;;;6.40;99.90;;;;;;5026764;28;20193;-83
2022/03/15 06:52:52;;;;;;;24.75;14.45;;;6.40;99.90;;;;;;5034784;28;20029;-83
2022/03/15 06:55:18;;;;;;;29.13;15.05;;;6.40;99.90;;;;;;5017995;28;20503;-83
2022/03/15 06:57:43;;;;;;;26.50;15.75;;;6.50;99.90;;;;;;5030722;28;20537;-83
2022/03/15 07:00:12;;;;;;;23.80;14.05;;;6.50;99.90;;;;;;5018124;28;20040;-85
2022/03/15 07:02:37;;;;;;;24.10;14.35;;;6.60;99.90;;;;;;5052536;28;20531;-84
2022/03/15 07:05:04;;;;;;;24.88;14.95;;;6.60;99.90;;;;;;5026124;28;20078;-82
2022/03/15 07:07:30;;;;;;;29.00;14.20;;;6.60;99.90;;;;;;5028275;28;20076;-82
2022/03/15 07:09:56;;;;;;;24.17;14.93;;;6.70;99.90;;;;;;5030946;28;20053;-82
2022/03/15 07:12:22;;;;;;;24.83;13.32;;;6.70;99.90;;;;;;5017460;28;20044;-82
2022/03/15 07:14:49;;;;;;;26.55;14.77;;;6.70;99.90;;;;;;5010459;28;20044;-82
2022/03/15 07:17:15;;;;;;;23.52;13.25;;;6.80;99.90;;;;;;5027373;28;20426;-82
2022/03/15 07:19:41;;;;;;;23.05;13.52;;;6.80;99.90;;;;;;5028345;28;20103;-82
2022/03/15 07:22:06;;;;;;;25.70;14.43;;;6.80;99.90;;;;;;5011909;28;20505;-82
2022/03/15 07:24:35;;;;;;;24.75;14.48;;;6.90;99.90;;;;;;5028604;28;20492;-81
2022/03/15 07:27:02;;;;;;;23.88;14.10;;;6.90;99.90;;;;;;5035036;28;20045;-82
2022/03/15 07:29:28;;;;;;;25.10;14.18;;;6.90;99.90;;;;;;5032177;28;20033;-82
2022/03/15 07:31:54;;;;;;;23.80;14.25;;;7.00;99.90;;;;;;5031024;28;20115;-82
2022/03/15 07:34:20;;;;;;;25.90;12.70;;;7.00;99.90;;;;;;5031296;28;20049;-81
2022/03/15 07:36:46;;;;;;;18.88;11.10;;;7.00;99.90;;;;;;5010012;28;20049;-82
2022/03/15 07:39:12;;;;;;;23.40;13.57;;;7.10;99.90;;;;;;5028106;28;20033;-82
2022/03/15 07:41:39;;;;;;;25.77;14.10;;;7.10;99.90;;;;;;5022846;28;20037;-81
2022/03/15 07:44:09;;;;;;;27.58;13.75;;;7.10;99.90;;;;;;5020088;28;20045;-84
2022/03/15 07:46:36;;;;;;;18.50;12.55;;;7.20;99.90;;;;;;5028927;28;20041;-82
2022/03/15 07:49:02;;;;;;;19.70;12.77;;;7.20;99.90;;;;;;5030116;28;20047;-82
2022/03/15 07:51:28;;;;;;;21.55;13.13;;;7.20;99.90;;;;;;5029041;28;20049;-82
2022/03/15 07:53:54;;;;;;;20.30;12.63;;;7.30;99.90;;;;;;5024949;28;20041;-82
2022/03/15 07:56:20;;;;;;;21.35;12.88;;;7.30;99.90;;;;;;5031936;28;20398;-83
2022/03/15 07:58:46;;;;;;;24.08;13.73;;;7.30;99.90;;;;;;5031182;28;20037;-82
2022/03/15 08:01:11;;;;;;;24.05;13.30;;;7.30;99.90;;;;;;5027663;28;20065;-82
2022/03/15 08:03:37;;;;;;;21.25;12.70;;;7.30;99.90;;;;;;5032875;28;20104;-82
2022/03/15 08:06:03;;;;;;;17.55;11.85;;;7.40;99.90;;;;;;5034894;28;20124;-82
2022/03/15 08:08:28;;;;;;;18.75;11.75;;;7.40;99.90;;;;;;5027211;28;20045;-82
2022/03/15 08:10:54;;;;;;;25.65;14.15;;;7.40;99.90;;;;;;5033540;28;20104;-82
2022/03/15 08:13:20;;;;;;;24.35;13.80;;;7.50;99.90;;;;;;5035876;28;20040;-82
2022/03/15 08:15:45;;;;;;;22.20;14.48;;;7.50;99.90;;;;;;5028959;28;20113;-82
2022/03/15 08:18:12;;;;;;;24.10;13.82;;;7.50;99.90;;;;;;5028274;28;20083;-82
2022/03/15 08:20:40;;;;;;;22.13;13.55;;;7.50;99.90;;;;;;5026545;28;20399;-82
2022/03/15 08:23:07;;;;;;;17.48;11.82;;;7.60;99.90;;;;;;5030423;28;20489;-82
2022/03/15 08:25:33;;;;;;;18.30;11.07;;;7.60;99.90;;;;;;5026669;28;20142;-82
2022/03/15 08:28:00;;;;;;;17.23;11.38;;;7.60;99.90;;;;;;5032963;28;20049;-82
2022/03/15 08:30:30;;;;;;;18.38;10.88;;;7.60;99.90;;;;;;5028293;28;20082;-82
2022/03/15 08:32:56;;;;;;;19.33;12.88;;;7.70;99.90;;;;;;5021294;28;20037;-82
2022/03/15 08:35:22;;;;;;;19.67;10.88;;;7.70;99.90;;;;;;5028453;28;20037;-82
2022/03/15 08:37:50;;;;;;;20.05;11.85;;;7.70;99.90;;;;;;5031825;28;20482;-82
2022/03/15 08:40:20;;;;;;;17.85;10.60;;;7.80;99.90;;;;;;5009656;28;20075;-82
2022/03/15 08:42:46;;;;;;;20.45;12.60;;;7.80;99.90;;;;;;5033866;28;20038;-82
2022/03/15 08:45:12;;;;;;;17.55;10.88;;;7.80;99.90;;;;;;5042328;28;20128;-82
2022/03/15 08:47:39;;;;;;;19.48;12.68;;;7.90;99.90;;;;;;5028699;28;20032;-82
2022/03/15 08:50:07;;;;;;;19.75;12.27;;;7.90;99.90;;;;;;5039995;28;20124;-82
2022/03/15 08:52:33;;;;;;;23.58;14.23;;;7.90;99.90;;;;;;5023890;28;20410;-82
2022/03/15 08:54:59;;;;;;;22.58;12.75;;;7.90;99.90;;;;;;5034731;28;20046;-82
2022/03/15 08:57:25;;;;;;;20.40;13.50;;;8.00;99.90;;;;;;5032328;28;20042;-81
2022/03/15 08:59:50;;;;;;;23.92;14.38;;;8.00;99.90;;;;;;5029221;28;20029;-82
2022/03/15 09:02:17;;;;;;;21.63;13.32;;;8.00;99.90;;;;;;5036004;28;20038;-82
2022/03/15 09:04:43;;;;;;;17.90;11.93;;;8.00;99.90;;;;;;5030006;28;20157;-81
2022/03/15 09:07:10;;;;;;;18.70;11.60;;;8.00;99.90;;;;;;5031889;28;20045;-82
2022/03/15 09:09:36;;;;;;;21.70;14.32;;;8.10;99.90;;;;;;4992128;28;20239;-82
2022/03/15 09:12:05;;;;;;;19.23;11.43;;;8.10;99.90;;;;;;5028732;28;20095;-82
2022/03/15 09:14:31;;;;;;;19.85;13.43;;;8.10;99.90;;;;;;5030475;28;20397;-82
2022/03/15 09:16:57;;;;;;;19.60;12.52;;;8.20;99.90;;;;;;5014116;28;20132;-82
2022/03/15 09:19:23;;;;;;;16.85;11.68;;;8.20;99.90;;;;;;5035908;28;20095;-82
2022/03/15 09:21:50;;;;;;;23.40;12.55;;;8.30;99.90;;;;;;5036546;28;20041;-82
2022/03/15 09:24:15;;;;;;;20.00;12.05;;;8.30;99.90;;;;;;5028574;28;20037;-82
2022/03/15 09:26:42;;;;;;;20.88;13.57;;;8.30;99.90;;;;;;4997312;28;20037;-82
2022/03/15 09:29:12;;;;;;;20.25;12.45;;;8.40;99.90;;;;;;5030489;28;20046;-82
2022/03/15 09:31:38;;;;;;;20.70;13.38;;;8.40;99.90;;;;;;5031565;28;20042;-82
2022/03/15 09:34:04;;;;;;;21.88;13.23;;;8.40;99.90;;;;;;5011602;28;21211;-82
2022/03/15 09:36:30;;;;;;;21.13;13.55;;;8.50;99.90;;;;;;5040321;28;20533;-82
2022/03/15 09:38:57;;;;;;;23.33;13.32;;;8.50;99.90;;;;;;5032518;28;20086;-80
2022/03/15 09:41:25;;;;;;;21.05;12.48;;;8.50;99.90;;;;;;5026720;28;20138;-81
2022/03/15 09:43:54;;;;;;;19.60;12.02;;;8.60;99.90;;;;;;5027513;28;20140;-82
2022/03/15 09:46:21;;;;;;;18.83;12.48;;;8.60;99.90;;;;;;5029732;28;20037;-82
2022/03/15 09:48:52;;;;;;;20.25;12.27;;;8.60;99.90;;;;;;5028458;28;20099;-82
2022/03/15 09:51:18;;;;;;;21.15;12.25;;;8.70;99.90;;;;;;5029580;28;20037;-82
2022/03/15 09:53:46;;;;;;;19.67;12.68;;;8.70;99.90;;;;;;5035147;28;20030;-82
2022/03/15 09:56:15;;;;;;;22.02;12.55;;;8.80;99.90;;;;;;5031213;28;20037;-82
2022/03/15 09:58:41;;;;;;;17.33;11.57;;;8.80;99.90;;;;;;5024439;28;20037;-82
2022/03/15 10:01:13;;;;;;;19.02;11.98;;;8.90;99.90;;;;;;5029358;28;20048;-83
2022/03/15 10:03:39;;;;;;;18.13;11.48;;;8.90;99.90;;;;;;5026577;28;20054;-82
2022/03/15 10:06:05;;;;;;;18.85;11.30;;;9.00;99.90;;;;;;5018058;28;20180;-83
2022/03/15 10:08:30;;;;;;;19.58;11.80;;;9.00;99.90;;;;;;5034026;28;20420;-82
2022/03/15 10:10:56;;;;;;;23.83;12.20;;;9.20;99.90;;;;;;5038721;28;20029;-82
2022/03/15 10:13:22;;;;;;;19.48;12.27;;;9.30;99.90;;;;;;5015588;28;20037;-82
2022/03/15 10:16:03;;;;;;;16.67;10.40;;;9.30;99.90;;;;;;5026188;28;20033;-82
2022/03/15 10:18:29;;;;;;;19.02;11.75;;;9.40;99.90;;;;;;5008637;28;20055;-82
2022/03/15 10:20:55;;;;;;;19.50;11.80;;;9.50;99.90;;;;;;5029667;28;20060;-82
2022/03/15 10:23:29;;;;;;;17.85;10.75;;;9.60;99.90;;;;;;5032028;28;20045;-82
2022/03/15 10:25:56;;;;;;;19.33;12.90;;;9.60;99.90;;;;;;5010466;28;20045;-82
2022/03/15 10:28:23;;;;;;;18.67;11.18;;;9.70;99.90;;;;;;5032146;28;20047;-82
2022/03/15 10:30:49;;;;;;;14.73;10.10;;;9.70;99.90;;;;;;5035380;28;20180;-82
2022/03/15 10:33:17;;;;;;;18.90;11.82;;;9.90;99.90;;;;;;5027251;28;21657;-82
2022/03/15 10:35:50;;;;;;;14.88;9.95;;;10.00;99.90;;;;;;5028374;28;20044;-82
2022/03/15 10:38:15;;;;;;;15.27;10.13;;;10.10;99.90;;;;;;5030339;28;20033;-82
2022/03/15 10:40:50;;;;;;;17.30;9.98;;;10.20;99.90;;;;;;5033979;28;20052;-82
2022/03/15 10:43:20;;;;;;;18.55;9.93;;;10.30;99.90;;;;;;5028325;28;20045;-82
2022/03/15 10:45:50;;;;;;;15.48;9.88;;;10.30;99.90;;;;;;5037315;28;20052;-82
2022/03/15 10:48:25;;;;;;;16.95;11.40;;;10.40;99.90;;;;;;5033145;28;20076;-82
2022/03/15 10:50:55;;;;;;;20.35;11.13;;;10.50;99.90;;;;;;5032143;28;20106;-82
2022/03/15 10:53:25;;;;;;;16.88;11.63;;;10.60;99.90;;;;;;5028892;28;20042;-81
2022/03/15 10:56:07;;;;;;;17.65;11.15;;;10.60;99.90;;;;;;5027031;28;20149;-82
2022/03/15 10:58:34;;;;;;;16.20;11.70;;;10.60;99.90;;;;;;5032302;28;20382;-82
2022/03/15 11:01:00;;;;;;;13.73;9.60;;;10.50;99.90;;;;;;5028576;28;20049;-82
2022/03/15 11:03:29;;;;;;;16.15;9.85;;;10.50;99.90;;;;;;5031895;28;20363;-83
2022/03/15 11:05:58;;;;;;;13.65;9.20;;;10.60;99.90;;;;;;5013633;28;20370;-84
2022/03/15 11:08:24;;;;;;;21.38;10.80;;;10.70;99.90;;;;;;5029762;28;20032;-83
2022/03/15 11:10:51;;;;;;;16.40;10.50;;;10.80;99.90;;;;;;5049137;28;20049;-82
2022/03/15 11:13:17;;;;;;;18.77;10.55;;;10.90;99.90;;;;;;5016112;28;20033;-83
2022/03/15 11:15:53;;;;;;;13.75;8.88;;;10.90;99.90;;;;;;5016102;28;20029;-83
2022/03/15 11:18:19;;;;;;;15.85;9.95;;;11.00;99.90;;;;;;5045333;28;20047;-83
2022/03/15 11:20:47;;;;;;;15.65;9.90;;;11.00;99.90;;;;;;5032317;28;20068;-83
2022/03/15 11:23:16;;;;;;;18.65;11.82;;;11.10;99.90;;;;;;5031246;28;20091;-83
2022/03/15 11:25:55;;;;;;;16.52;9.68;;;11.10;99.90;;;;;;5028733;28;20071;-83
2022/03/15 11:28:27;;;;;;;12.48;8.82;;;11.20;99.90;;;;;;5028182;28;20048;-84
2022/03/15 11:30:55;;;;;;;16.27;9.93;;;11.20;99.90;;;;;;5051115;28;20095;-83
2022/03/15 11:33:21;;;;;;;16.75;8.60;;;11.20;99.90;;;;;;5014643;28;20021;-82
2022/03/15 11:35:47;;;;;;;15.25;8.05;;;11.20;99.90;;;;;;5035813;28;20389;-83
2022/03/15 11:38:13;;;;;;;13.82;8.45;;;11.20;99.90;;;;;;5031115;28;20124;-83
2022/03/15 11:40:43;;;;;;;18.25;8.32;;;11.30;99.90;;;;;;5020772;28;20049;-83
2022/03/15 11:43:33;;;;;;;13.07;8.48;;;11.30;99.90;;;;;;5035784;28;20053;-83
2022/03/15 11:46:04;;;;;;;11.75;7.25;;;11.40;99.90;;;;;;5040471;28;20204;-83
2022/03/15 11:48:48;;;;;;;14.13;8.63;;;11.40;99.90;;;;;;5034952;28;20448;-83
2022/03/15 11:51:34;;;;;;;11.18;6.97;;;11.50;99.90;;;;;;5036292;28;20397;-83
2022/03/15 11:54:21;;;;;;;14.50;8.90;;;11.60;99.90;;;;;;5033882;28;20060;-83
2022/03/15 11:57:09;;;;;;;14.27;8.77;;;11.60;99.90;;;;;;5021076;28;20037;-83
2022/03/15 11:59:49;;;;;;;13.40;8.05;;;11.70;99.90;;;;;;5034699;28;20035;-84
2022/03/15 12:02:28;;;;;;;18.25;8.43;;;11.80;99.90;;;;;;5040855;28;20044;-83
2022/03/15 12:04:56;;;;;;;15.77;8.45;;;11.90;99.90;;;;;;5031381;28;20058;-84
2022/03/15 12:07:36;;;;;;;13.63;7.10;;;11.90;99.90;;;;;;5038069;28;20382;-83
2022/03/15 12:10:08;;;;;;;12.50;7.53;;;12.00;99.90;;;;;;5036836;28;20087;-83
2022/03/15 12:12:33;;;;;;;11.63;7.93;;;12.00;99.90;;;;;;5017079;28;20041;-83
2022/03/15 12:15:12;;;;;;;14.32;7.93;;;12.10;99.90;;;;;;5022658;28;20444;-83
2022/03/15 12:17:42;;;;;;;13.07;7.55;;;12.20;99.90;;;;;;5031648;28;20045;-83
2022/03/15 12:20:13;;;;;;;13.90;7.07;;;12.30;99.90;;;;;;5037780;28;20048;-83
2022/03/15 12:22:41;;;;;;;12.82;7.25;;;12.40;99.90;;;;;;5012322;28;20034;-83
2022/03/15 12:25:11;;;;;;;11.98;7.43;;;12.50;99.90;;;;;;5020371;28;20075;-84
2022/03/15 12:27:43;;;;;;;13.43;8.23;;;12.70;99.90;;;;;;5032309;28;20042;-83
2022/03/15 12:30:12;;;;;;;14.43;8.63;;;13.10;99.90;;;;;;5038177;28;20048;-83
2022/03/15 12:32:37;;;;;;;15.95;7.60;;;13.90;99.90;;;;;;5027039;28;20066;-83
2022/03/15 12:35:04;;;;;;;11.45;6.90;;;14.80;98.90;;;;;;5028171;28;20525;-83
2022/03/15 12:37:33;;;;;;;13.93;7.88;;;15.60;96.30;;;;;;5033393;28;20049;-83
2022/03/15 12:40:03;;;;;;;14.80;8.20;;;16.30;93.70;;;;;;5004504;28;20044;-83
2022/03/15 12:42:29;;;;;;;11.40;6.72;;;16.70;90.90;;;;;;5024749;28;20053;-83